createdAt,value
2019-05-06T00:00:14.427Z,91.41
2019-05-06T00:01:14.977Z,91.99
2019-05-06T00:02:14.400Z,92.20
2019-05-06T00:03:14.398Z,92.24
2019-05-06T00:04:14.383Z,92.30
2019-05-06T00:05:14.450Z,92.20
2019-05-06T00:06:14.560Z,92.10
2019-05-06T00:07:14.349Z,92.51
2019-05-06T00:08:14.529Z,92.61
2019-05-06T00:09:14.794Z,92.61
2019-05-06T00:10:14.333Z,92.72
2019-05-06T00:11:14.325Z,92.61
2019-05-06T00:12:14.515Z,92.61
2019-05-06T00:13:14.311Z,93.35
2019-05-06T00:14:14.285Z,92.93
2019-05-06T00:15:14.475Z,93.24
2019-05-06T00:16:14.497Z,93.62
2019-05-06T00:17:14.593Z,94.03
2019-05-06T00:18:14.221Z,94.03
2019-05-06T00:19:14.240Z,93.93
2019-05-06T00:20:14.724Z,93.62
2019-05-06T00:21:14.787Z,94.24
2019-05-06T00:22:14.317Z,94.51
2019-05-06T00:23:14.339Z,94.51
2019-05-06T00:24:14.666Z,94.40
2019-05-06T00:25:16.790Z,94.40
2019-05-06T00:26:14.148Z,94.92
2019-05-06T00:27:14.245Z,93.84
2019-05-06T00:28:14.107Z,93.63
2019-05-06T00:29:14.095Z,93.99
2019-05-06T00:30:14.902Z,93.74
2019-05-06T00:31:16.575Z,93.74
2019-05-06T00:32:15.063Z,94.20
2019-05-06T00:33:14.057Z,93.74
2019-05-06T00:34:14.040Z,93.95
2019-05-06T00:35:14.255Z,93.84
2019-05-06T00:36:14.221Z,93.84
2019-05-06T00:37:14.633Z,93.37
2019-05-06T00:38:13.996Z,93.12
2019-05-06T00:39:14.968Z,93.68
2019-05-06T00:40:14.108Z,93.84
2019-05-06T00:41:14.424Z,92.69
2019-05-06T00:42:14.004Z,93.16
2019-05-06T00:43:14.115Z,93.05
2019-05-06T00:44:14.395Z,92.80
2019-05-06T00:45:13.933Z,92.53
2019-05-06T00:46:13.966Z,92.43
2019-05-06T00:47:13.924Z,92.11
2019-05-06T00:48:14.054Z,92.32
2019-05-06T00:49:14.318Z,91.91
2019-05-06T00:50:14.304Z,92.53
2019-05-06T00:51:13.845Z,92.16
2019-05-06T00:52:13.834Z,92.16
2019-05-06T00:53:14.180Z,91.95
2019-05-06T00:54:14.297Z,92.16
2019-05-06T00:55:13.844Z,91.33
2019-05-06T00:56:14.065Z,91.16
2019-05-06T00:57:14.026Z,90.85
2019-05-06T00:58:14.231Z,91.16
2019-05-06T00:59:14.335Z,91.06
2019-05-06T01:00:13.742Z,91.47
2019-05-06T01:01:25.937Z,92.30
2019-05-06T01:02:14.718Z,91.89
2019-05-06T01:03:14.094Z,92.14
2019-05-06T01:04:14.008Z,92.10
2019-05-06T01:05:14.009Z,92.14
2019-05-06T01:06:14.204Z,92.03
2019-05-06T01:07:14.046Z,92.08
2019-05-06T01:08:14.123Z,92.03
2019-05-06T01:09:14.126Z,92.66
2019-05-06T01:10:14.275Z,92.55
2019-05-06T01:11:14.440Z,92.86
2019-05-06T01:12:14.338Z,92.45
2019-05-06T01:13:14.545Z,92.55
2019-05-06T01:14:14.830Z,92.66
2019-05-06T01:15:14.279Z,92.49
2019-05-06T01:16:15.621Z,92.35
2019-05-06T01:17:13.548Z,92.08
2019-05-06T01:18:13.841Z,92.22
2019-05-06T01:19:14.165Z,91.97
2019-05-06T01:20:13.970Z,92.02
2019-05-06T01:21:14.551Z,92.74
2019-05-06T01:22:14.018Z,92.39
2019-05-06T01:23:14.374Z,92.08
2019-05-06T01:24:14.674Z,92.54
2019-05-06T01:25:14.212Z,92.49
2019-05-06T01:26:15.023Z,92.64
2019-05-06T01:27:14.556Z,92.91
2019-05-06T01:28:13.876Z,92.74
2019-05-06T01:29:14.564Z,93.05
2019-05-06T01:30:13.811Z,92.95
2019-05-06T01:31:13.985Z,92.95
2019-05-06T01:32:13.933Z,92.79
2019-05-06T01:33:14.615Z,93.27
2019-05-06T01:34:13.811Z,93.16
2019-05-06T01:35:14.023Z,93.68
2019-05-06T01:36:14.181Z,93.52
2019-05-06T01:37:14.238Z,93.52
2019-05-06T01:38:14.655Z,94.04
2019-05-06T01:39:13.892Z,94.10
2019-05-06T01:40:14.318Z,93.83
2019-05-06T01:41:13.671Z,93.89
2019-05-06T01:42:13.855Z,93.89
2019-05-06T01:43:14.556Z,94.45
2019-05-06T01:44:13.716Z,94.24
2019-05-06T01:45:14.182Z,93.93
2019-05-06T01:46:14.024Z,94.45
2019-05-06T01:47:14.534Z,94.41
2019-05-06T01:48:14.345Z,94.76
2019-05-06T01:49:13.755Z,94.76
2019-05-06T01:50:14.044Z,94.87
2019-05-06T01:51:14.278Z,95.18
2019-05-06T01:52:14.684Z,94.66
2019-05-06T01:53:14.033Z,94.72
2019-05-06T01:54:14.114Z,94.51
2019-05-06T01:55:14.171Z,95.03
2019-05-06T01:56:14.499Z,94.87
2019-05-06T01:57:13.753Z,94.51
2019-05-06T01:58:14.567Z,94.72
2019-05-06T01:59:13.958Z,94.72
2019-05-06T02:00:14.056Z,94.82
2019-05-06T02:01:14.825Z,95.14
2019-05-06T02:02:14.283Z,95.87
2019-05-06T02:03:14.738Z,95.45
2019-05-06T02:04:13.800Z,95.76
2019-05-06T02:05:13.813Z,95.93
2019-05-06T02:06:14.175Z,95.56
2019-05-06T02:07:14.486Z,96.14
2019-05-06T02:08:13.510Z,96.03
2019-05-06T02:09:13.720Z,95.93
2019-05-06T02:10:14.196Z,95.72
2019-05-06T02:11:14.915Z,96.03
2019-05-06T02:12:13.768Z,96.09
2019-05-06T02:13:14.215Z,95.83
2019-05-06T02:14:14.008Z,96.03
2019-05-06T02:15:14.599Z,95.62
2019-05-06T02:16:14.533Z,96.03
2019-05-06T02:17:14.392Z,95.72
2019-05-06T02:18:13.520Z,95.72
2019-05-06T02:19:14.795Z,95.62
2019-05-06T02:20:13.806Z,95.72
2019-05-06T02:21:13.890Z,95.67
2019-05-06T02:22:13.610Z,95.57
2019-05-06T02:23:14.573Z,95.67
2019-05-06T02:24:13.489Z,95.57
2019-05-06T02:25:13.830Z,95.62
2019-05-06T02:26:14.136Z,95.57
2019-05-06T02:27:13.968Z,95.72
2019-05-06T02:28:14.307Z,95.09
2019-05-06T02:29:12.724Z,95.26
2019-05-06T02:30:15.293Z,95.57
2019-05-06T02:31:14.856Z,95.36
2019-05-06T02:32:25.486Z,95.09
2019-05-06T02:33:15.380Z,95.15
2019-05-06T02:34:15.290Z,95.62
2019-05-06T02:35:14.948Z,95.26
2019-05-06T02:36:14.928Z,95.36
2019-05-06T02:37:14.676Z,95.57
2019-05-06T02:38:12.649Z,95.72
2019-05-06T02:39:14.103Z,94.84
2019-05-06T02:40:12.710Z,94.84
2019-05-06T02:41:13.494Z,94.74
2019-05-06T02:42:13.197Z,94.68
2019-05-06T02:43:13.577Z,94.78
2019-05-06T02:44:13.686Z,94.68
2019-05-06T02:45:12.784Z,95.03
2019-05-06T02:46:13.019Z,94.37
2019-05-06T02:47:13.729Z,94.06
2019-05-06T02:48:13.803Z,94.37
2019-05-06T02:49:13.220Z,94.37
2019-05-06T02:50:13.249Z,94.10
2019-05-06T02:51:13.315Z,94.41
2019-05-06T02:52:14.061Z,94.41
2019-05-06T02:53:13.357Z,94.10
2019-05-06T02:54:13.553Z,93.52
2019-05-06T02:55:13.035Z,93.79
2019-05-06T02:56:13.360Z,93.89
2019-05-06T02:57:13.155Z,94.04
2019-05-06T02:58:14.828Z,93.58
2019-05-06T02:59:12.885Z,94.35
2019-05-06T03:00:13.159Z,94.14
2019-05-06T03:01:13.557Z,93.93
2019-05-06T03:02:14.022Z,94.04
2019-05-06T03:03:13.998Z,94.45
2019-05-06T03:04:13.136Z,94.14
2019-05-06T03:05:13.090Z,94.14
2019-05-06T03:06:13.105Z,94.14
2019-05-06T03:07:14.529Z,94.45
2019-05-06T03:08:13.396Z,93.93
2019-05-06T03:09:13.553Z,94.18
2019-05-06T03:10:12.880Z,94.24
2019-05-06T03:11:13.508Z,94.39
2019-05-06T03:12:13.649Z,94.14
2019-05-06T03:13:14.291Z,94.18
2019-05-06T03:14:13.854Z,93.98
2019-05-06T03:15:16.157Z,94.08
2019-05-06T03:16:14.219Z,94.39
2019-05-06T03:17:14.121Z,94.23
2019-05-06T03:18:14.759Z,94.43
2019-05-06T03:19:13.323Z,94.29
2019-05-06T03:20:13.223Z,93.60
2019-05-06T03:21:13.848Z,94.23
2019-05-06T03:22:13.394Z,94.43
2019-05-06T03:23:14.234Z,94.64
2019-05-06T03:24:14.532Z,94.18
2019-05-06T03:25:13.301Z,94.43
2019-05-06T03:26:13.697Z,94.43
2019-05-06T03:27:14.287Z,94.02
2019-05-06T03:28:13.241Z,94.33
2019-05-06T03:29:13.678Z,94.33
2019-05-06T03:30:16.435Z,93.71
2019-05-06T03:31:16.533Z,94.58
2019-05-06T03:32:16.666Z,94.48
2019-05-06T03:33:37.799Z,94.17
2019-05-06T03:34:27.854Z,94.06
2019-05-06T03:35:31.337Z,93.85
2019-05-06T03:36:23.627Z,94.27
2019-05-06T03:37:16.761Z,94.37
2019-05-06T03:38:13.779Z,94.27
2019-05-06T03:39:13.868Z,94.37
2019-05-06T03:40:13.864Z,94.79
2019-05-06T03:41:13.867Z,94.79
2019-05-06T03:42:15.992Z,95.25
2019-05-06T03:43:13.660Z,95.21
2019-05-06T03:44:16.358Z,95.00
2019-05-06T03:45:13.183Z,95.46
2019-05-06T03:46:14.326Z,94.94
2019-05-06T03:47:13.962Z,94.90
2019-05-06T03:48:12.940Z,95.21
2019-05-06T03:49:13.464Z,95.42
2019-05-06T03:50:13.323Z,95.46
2019-05-06T03:51:13.524Z,95.25
2019-05-06T03:52:13.637Z,94.84
2019-05-06T03:53:14.034Z,94.90
2019-05-06T03:54:12.833Z,95.10
2019-05-06T03:55:13.878Z,95.62
2019-05-06T03:56:16.920Z,95.73
2019-05-06T03:57:13.782Z,95.94
2019-05-06T03:58:13.495Z,96.00
2019-05-06T03:59:13.321Z,96.52
2019-05-06T04:00:13.288Z,96.52
2019-05-06T04:01:13.218Z,97.41
2019-05-06T04:02:13.258Z,97.31
2019-05-06T04:03:13.983Z,97.68
2019-05-06T04:04:12.591Z,97.68
2019-05-06T04:05:13.234Z,98.05
2019-05-06T04:06:13.785Z,98.16
2019-05-06T04:07:13.925Z,98.57
2019-05-06T04:08:12.701Z,98.26
2019-05-06T04:09:13.272Z,98.57
2019-05-06T04:10:13.623Z,98.68
2019-05-06T04:11:13.617Z,98.01
2019-05-06T04:12:12.810Z,97.38
2019-05-06T04:13:13.441Z,97.80
2019-05-06T04:14:14.007Z,97.91
2019-05-06T04:15:14.108Z,98.22
2019-05-06T04:16:13.801Z,97.80
2019-05-06T04:17:13.053Z,97.70
2019-05-06T04:18:12.528Z,97.17
2019-05-06T04:19:13.103Z,97.28
2019-05-06T04:20:12.766Z,97.59
2019-05-06T04:21:13.445Z,97.38
2019-05-06T04:22:12.928Z,97.28
2019-05-06T04:23:13.378Z,97.34
2019-05-06T04:24:13.356Z,97.17
2019-05-06T04:25:13.660Z,97.13
2019-05-06T04:26:13.396Z,97.03
2019-05-06T04:27:13.516Z,96.98
2019-05-06T04:28:12.906Z,97.24
2019-05-06T04:29:13.091Z,97.09
2019-05-06T04:31:07.383Z,97.30
2019-05-06T04:32:07.370Z,97.19
2019-05-06T04:33:07.357Z,96.67
2019-05-06T04:34:14.062Z,96.47
2019-05-06T04:35:08.360Z,96.62
2019-05-06T04:36:07.324Z,96.36
2019-05-06T04:37:07.311Z,96.73
2019-05-06T04:38:07.299Z,96.42
2019-05-06T04:39:07.287Z,96.52
2019-05-06T04:40:07.278Z,96.62
2019-05-06T04:41:07.284Z,96.11
2019-05-06T04:42:09.753Z,96.83
2019-05-06T04:43:07.240Z,96.69
2019-05-06T04:44:07.229Z,96.79
2019-05-06T04:45:07.218Z,95.54
2019-05-06T04:46:07.244Z,95.44
2019-05-06T04:47:07.196Z,95.40
2019-05-06T04:48:07.188Z,95.19
2019-05-06T04:49:10.713Z,94.57
2019-05-06T04:50:08.159Z,94.78
2019-05-06T04:51:07.171Z,94.98
2019-05-06T04:52:07.142Z,93.80
2019-05-06T04:53:07.131Z,94.06
2019-05-06T04:54:07.114Z,93.96
2019-05-06T04:55:07.106Z,93.75
2019-05-06T04:56:07.112Z,93.13
2019-05-06T04:57:07.079Z,92.82
2019-05-06T04:58:07.079Z,92.72
2019-05-06T04:59:07.060Z,92.61
2019-05-06T05:00:07.046Z,92.41
2019-05-06T05:01:07.053Z,92.10
2019-05-06T05:02:07.023Z,91.47
2019-05-06T05:03:07.030Z,91.43
2019-05-06T05:04:22.773Z,90.91
2019-05-06T05:05:07.986Z,90.60
2019-05-06T05:06:06.998Z,89.56
2019-05-06T05:07:06.966Z,89.73
2019-05-06T05:08:06.953Z,88.90
2019-05-06T05:09:06.941Z,88.55
2019-05-06T05:10:06.930Z,88.59
2019-05-06T05:11:06.956Z,88.79
2019-05-06T05:12:06.906Z,87.45
2019-05-06T05:13:06.895Z,87.82
2019-05-06T05:14:06.881Z,87.97
2019-05-06T05:15:06.874Z,87.93
2019-05-06T05:16:06.859Z,87.87
2019-05-06T05:17:06.865Z,87.97
2019-05-06T05:18:06.835Z,87.97
2019-05-06T05:19:06.823Z,87.87
2019-05-06T05:20:06.812Z,87.97
2019-05-06T05:21:06.806Z,87.62
2019-05-06T05:22:06.813Z,87.97
2019-05-06T05:23:06.781Z,86.79
2019-05-06T05:24:06.765Z,87.30
2019-05-06T05:25:06.752Z,87.66
2019-05-06T05:26:06.765Z,87.72
2019-05-06T05:27:06.753Z,88.28
2019-05-06T05:28:06.721Z,88.28
2019-05-06T05:29:06.705Z,87.93
2019-05-06T05:30:06.697Z,88.07
2019-05-06T05:31:06.684Z,87.93
2019-05-06T05:32:06.693Z,87.55
2019-05-06T05:33:06.661Z,87.62
2019-05-06T05:34:06.648Z,87.55
2019-05-06T05:35:06.641Z,87.82
2019-05-06T05:36:06.626Z,87.30
2019-05-06T05:37:06.614Z,88.03
2019-05-06T05:38:06.622Z,88.03
2019-05-06T05:39:06.593Z,88.03
2019-05-06T05:40:06.580Z,87.62
2019-05-06T05:41:06.568Z,87.82
2019-05-06T05:42:06.554Z,87.62
2019-05-06T05:43:06.565Z,87.88
2019-05-06T05:44:06.533Z,87.88
2019-05-06T05:45:06.521Z,87.47
2019-05-06T05:46:06.513Z,87.47
2019-05-06T05:47:06.499Z,86.54
2019-05-06T05:48:06.506Z,86.23
2019-05-06T05:49:06.476Z,85.09
2019-05-06T05:50:06.463Z,85.30
2019-05-06T05:51:06.457Z,85.82
2019-05-06T05:52:06.440Z,85.82
2019-05-06T05:53:06.449Z,86.09
2019-05-06T05:54:06.417Z,85.47
2019-05-06T05:55:06.403Z,85.26
2019-05-06T05:56:06.393Z,85.05
2019-05-06T05:57:06.381Z,84.95
2019-05-06T05:58:06.388Z,85.36
2019-05-06T05:59:06.357Z,84.53
2019-05-06T06:00:06.347Z,84.01
2019-05-06T06:01:06.336Z,84.74
2019-05-06T06:02:06.325Z,83.81
2019-05-06T06:03:07.217Z,84.95
2019-05-06T06:04:06.299Z,85.02
2019-05-06T06:05:06.288Z,85.57
2019-05-06T06:06:06.277Z,85.42
2019-05-06T06:07:06.263Z,85.94
2019-05-06T06:08:06.275Z,85.74
2019-05-06T06:09:06.243Z,85.49
2019-05-06T06:10:06.231Z,84.97
2019-05-06T06:11:06.219Z,84.05
2019-05-06T06:12:06.206Z,84.25
2019-05-06T06:13:06.213Z,83.42
2019-05-06T06:14:06.185Z,83.94
2019-05-06T06:15:06.173Z,83.32
2019-05-06T06:16:06.163Z,84.59
2019-05-06T06:17:06.150Z,82.52
2019-05-06T06:18:06.156Z,82.21
2019-05-06T06:19:06.154Z,82.42
2019-05-06T06:20:06.117Z,81.59
2019-05-06T06:21:17.732Z,80.66
2019-05-06T06:22:07.092Z,80.83
2019-05-06T06:23:06.099Z,80.73
2019-05-06T06:24:06.068Z,81.14
2019-05-06T06:25:06.058Z,81.66
2019-05-06T06:26:06.045Z,80.07
2019-05-06T06:27:06.032Z,80.73
2019-05-06T06:28:06.043Z,80.48
2019-05-06T06:29:06.012Z,81.00
2019-05-06T06:30:06.000Z,80.65
2019-05-06T06:31:05.987Z,79.93
2019-05-06T06:32:05.975Z,78.04
2019-05-06T06:33:05.966Z,77.42
2019-05-06T06:34:05.978Z,78.14
2019-05-06T06:35:11.035Z,78.66
2019-05-06T06:36:06.929Z,77.83
2019-05-06T06:37:05.918Z,77.52
2019-05-06T06:38:05.904Z,76.29
2019-05-06T06:39:05.913Z,77.48
2019-05-06T06:40:05.884Z,77.69
2019-05-06T06:41:05.871Z,76.97
2019-05-06T06:42:05.859Z,76.97
2019-05-06T06:43:05.847Z,77.04
2019-05-06T06:44:05.855Z,76.73
2019-05-06T06:45:05.825Z,76.21
2019-05-06T06:46:09.263Z,74.80
2019-05-06T06:47:05.800Z,75.60
2019-05-06T06:48:05.787Z,75.29
2019-05-06T06:49:05.796Z,75.39
2019-05-06T06:50:05.764Z,76.01
2019-05-06T06:51:05.754Z,75.46
2019-05-06T06:52:11.281Z,74.33
2019-05-06T06:53:06.728Z,74.33
2019-05-06T06:54:05.758Z,73.91
2019-05-06T06:55:05.706Z,73.71
2019-05-06T06:56:05.694Z,73.19
2019-05-06T06:57:09.158Z,73.30
2019-05-06T06:58:05.673Z,74.08
2019-05-06T06:59:05.660Z,73.88
2019-05-06T07:00:05.665Z,73.47
2019-05-06T07:01:05.635Z,73.85
2019-05-06T07:02:05.625Z,73.09
2019-05-06T07:03:05.613Z,72.51
2019-05-06T07:04:10.618Z,73.02
2019-05-06T07:05:06.608Z,72.47
2019-05-06T07:06:05.578Z,71.66
2019-05-06T07:07:05.573Z,72.06
2019-05-06T07:08:05.557Z,72.47
2019-05-06T07:09:05.552Z,71.24
2019-05-06T07:10:05.550Z,71.04
2019-05-06T07:11:05.521Z,71.21
2019-05-06T07:12:05.557Z,70.79
2019-05-06T07:13:05.500Z,70.83
2019-05-06T07:14:05.494Z,70.28
2019-05-06T07:15:05.495Z,70.59
2019-05-06T07:16:05.466Z,69.98
2019-05-06T07:17:05.453Z,69.23
2019-05-06T07:18:05.444Z,69.56
2019-05-06T07:19:05.430Z,70.36
2019-05-06T07:20:05.447Z,69.74
2019-05-06T07:21:06.298Z,68.51
2019-05-06T07:22:06.999Z,70.36
2019-05-06T07:23:05.384Z,68.19
2019-05-06T07:24:05.373Z,68.78
2019-05-06T07:25:05.385Z,68.88
2019-05-06T07:26:05.352Z,68.96
2019-05-06T07:27:05.339Z,68.13
2019-05-06T07:28:05.328Z,68.00
2019-05-06T07:29:15.280Z,65.77
2019-05-06T07:30:06.327Z,67.52
2019-05-06T07:31:20.713Z,66.56
2019-05-06T07:32:06.278Z,66.19
2019-05-06T07:33:05.271Z,67.28
2019-05-06T07:34:05.253Z,67.08
2019-05-06T07:35:06.323Z,65.74
2019-05-06T07:36:05.250Z,65.44
2019-05-06T07:37:05.216Z,65.33
2019-05-06T07:38:05.204Z,65.54
2019-05-06T07:39:05.213Z,65.95
2019-05-06T07:40:05.181Z,64.59
2019-05-06T07:41:05.196Z,65.10
2019-05-06T07:42:05.159Z,65.37
2019-05-06T07:43:05.147Z,64.32
2019-05-06T07:44:05.135Z,65.49
2019-05-06T07:45:06.472Z,62.83
2019-05-06T07:46:05.136Z,62.39
2019-05-06T07:47:05.100Z,62.59
2019-05-06T07:48:05.088Z,58.34
2019-05-06T07:49:05.075Z,56.68
2019-05-06T07:50:05.065Z,53.50
2019-05-06T07:51:05.051Z,49.44
2019-05-06T07:52:05.060Z,48.24
2019-05-06T07:53:05.033Z,47.16
2019-05-06T07:54:05.017Z,45.07
2019-05-06T07:55:05.010Z,43.20
2019-05-06T07:56:04.994Z,42.46
2019-05-06T07:57:04.999Z,42.27
2019-05-06T07:58:04.974Z,37.82
2019-05-06T07:59:04.961Z,39.18
2019-05-06T08:00:04.948Z,39.56
2019-05-06T08:01:04.936Z,40.26
2019-05-06T08:02:04.943Z,40.20
2019-05-06T08:03:04.914Z,39.04
2019-05-06T08:04:04.903Z,37.79
2019-05-06T08:05:07.535Z,35.96
2019-05-06T08:06:04.880Z,38.03
2019-05-06T08:07:04.892Z,34.09
2019-05-06T08:08:04.872Z,35.13
2019-05-06T08:09:04.844Z,35.63
2019-05-06T08:10:04.832Z,36.13
2019-05-06T08:11:04.825Z,35.99
2019-05-06T08:12:04.827Z,35.55
2019-05-06T08:13:04.799Z,35.39
2019-05-06T08:14:04.787Z,36.20
2019-05-06T08:15:05.820Z,36.38
2019-05-06T08:16:04.774Z,36.36
2019-05-06T08:17:04.768Z,36.43
2019-05-06T08:18:04.752Z,34.69
2019-05-06T08:19:04.731Z,33.78
2019-05-06T08:20:04.731Z,35.30
2019-05-06T08:21:04.707Z,34.71
2019-05-06T08:22:04.715Z,34.86
2019-05-06T08:23:04.685Z,34.53
2019-05-06T08:24:04.673Z,31.95
2019-05-06T08:25:04.661Z,33.66
2019-05-06T08:26:12.466Z,34.94
2019-05-06T08:27:05.660Z,35.60
2019-05-06T08:28:04.627Z,35.19
2019-05-06T08:29:04.617Z,33.18
2019-05-06T08:30:04.608Z,34.18
2019-05-06T08:31:04.595Z,34.89
2019-05-06T08:32:04.607Z,34.86
2019-05-06T08:33:04.573Z,32.02
2019-05-06T08:34:04.559Z,31.09
2019-05-06T08:35:04.549Z,31.67
2019-05-06T08:36:11.342Z,30.59
2019-05-06T08:37:05.544Z,33.22
2019-05-06T08:38:04.517Z,33.08
2019-05-06T08:39:04.506Z,30.89
2019-05-06T08:40:04.494Z,30.58
2019-05-06T08:41:04.483Z,31.16
2019-05-06T08:42:04.473Z,31.05
2019-05-06T08:43:04.479Z,30.86
2019-05-06T08:44:04.454Z,32.04
2019-05-06T08:45:07.010Z,31.93
2019-05-06T08:46:04.427Z,30.96
2019-05-06T08:47:04.415Z,29.25
2019-05-06T08:48:04.431Z,29.97
2019-05-06T08:49:04.395Z,30.54
2019-05-06T08:50:04.387Z,30.72
2019-05-06T08:51:04.400Z,30.59
2019-05-06T08:52:04.363Z,29.77
2019-05-06T08:53:05.090Z,32.04
2019-05-06T08:54:04.340Z,31.81
2019-05-06T08:55:04.883Z,33.38
2019-05-06T08:56:04.318Z,34.86
2019-05-06T08:57:04.308Z,36.73
2019-05-06T08:58:04.320Z,36.97
2019-05-06T08:59:04.284Z,39.04
2019-05-06T09:00:04.275Z,34.36
2019-05-06T09:01:04.263Z,33.29
2019-05-06T09:02:04.252Z,31.90
2019-05-06T09:03:04.671Z,32.81
2019-05-06T09:04:09.462Z,33.11
2019-05-06T09:05:05.218Z,34.50
2019-05-06T09:06:07.287Z,32.41
2019-05-06T09:07:04.201Z,34.51
2019-05-06T09:08:04.187Z,34.50
2019-05-06T09:09:04.194Z,33.58
2019-05-06T09:10:04.160Z,31.95
2019-05-06T09:11:04.151Z,33.33
2019-05-06T09:12:04.139Z,35.49
2019-05-06T09:13:04.131Z,30.85
2019-05-06T09:14:04.161Z,29.63
2019-05-06T09:15:04.106Z,27.91
2019-05-06T09:16:04.122Z,26.20
2019-05-06T09:17:04.086Z,26.61
2019-05-06T09:18:04.073Z,27.21
2019-05-06T09:19:04.632Z,27.78
2019-05-06T09:20:04.072Z,27.84
2019-05-06T09:21:04.041Z,28.73
2019-05-06T09:22:04.031Z,26.78
2019-05-06T09:23:04.712Z,26.48
2019-05-06T09:24:04.011Z,27.57
2019-05-06T09:25:04.018Z,26.28
2019-05-06T09:26:03.991Z,26.32
2019-05-06T09:27:03.976Z,29.38
2019-05-06T09:28:03.968Z,27.19
2019-05-06T09:29:03.957Z,28.55
2019-05-06T09:30:03.987Z,24.58
2019-05-06T09:31:03.936Z,26.28
2019-05-06T09:32:03.924Z,27.75
2019-05-06T09:33:03.916Z,26.93
2019-05-06T09:34:03.902Z,26.62
2019-05-06T09:35:03.892Z,27.23
2019-05-06T09:36:03.901Z,27.64
2019-05-06T09:37:03.931Z,28.42
2019-05-06T09:38:03.861Z,25.40
2019-05-06T09:39:03.876Z,27.03
2019-05-06T09:40:03.840Z,26.72
2019-05-06T09:41:05.005Z,30.55
2019-05-06T09:42:03.817Z,30.79
2019-05-06T09:43:04.696Z,32.94
2019-05-06T09:44:03.794Z,33.56
2019-05-06T09:45:03.781Z,34.39
2019-05-06T09:46:03.792Z,32.09
2019-05-06T09:47:03.760Z,33.98
2019-05-06T09:48:04.296Z,35.08
2019-05-06T09:49:03.737Z,29.10
2019-05-06T09:50:03.728Z,26.09
2019-05-06T09:51:03.747Z,26.39
2019-05-06T09:52:03.702Z,28.78
2019-05-06T09:53:03.695Z,27.08
2019-05-06T09:54:04.201Z,28.44
2019-05-06T09:55:03.669Z,27.64
2019-05-06T09:56:03.669Z,30.54
2019-05-06T09:57:03.667Z,31.30
2019-05-06T09:58:03.768Z,35.14
2019-05-06T09:59:03.625Z,35.98
2019-05-06T10:00:04.895Z,35.31
2019-05-06T10:01:03.600Z,37.36
2019-05-06T10:02:03.630Z,36.87
2019-05-06T10:03:03.958Z,37.92
2019-05-06T10:04:03.566Z,38.57
2019-05-06T10:05:03.804Z,39.12
2019-05-06T10:06:03.547Z,39.02
2019-05-06T10:07:03.552Z,38.93
2019-05-06T10:08:03.522Z,37.81
2019-05-06T10:09:04.852Z,37.73
2019-05-06T10:10:03.503Z,37.52
2019-05-06T10:11:03.486Z,37.29
2019-05-06T10:12:03.493Z,39.06
2019-05-06T10:13:03.462Z,40.52
2019-05-06T10:14:03.456Z,41.35
2019-05-06T10:15:03.518Z,40.64
2019-05-06T10:16:03.428Z,41.56
2019-05-06T10:17:04.438Z,41.99
2019-05-06T10:18:04.527Z,43.12
2019-05-06T10:19:03.393Z,42.33
2019-05-06T10:20:03.394Z,43.26
2019-05-06T10:21:03.386Z,42.63
2019-05-06T10:22:03.678Z,42.33
2019-05-06T10:23:03.348Z,44.18
2019-05-06T10:24:03.333Z,43.16
2019-05-06T10:25:03.902Z,42.13
2019-05-06T10:26:04.603Z,38.80
2019-05-06T10:27:03.299Z,38.71
2019-05-06T10:28:03.333Z,36.32
2019-05-06T10:29:03.276Z,36.25
2019-05-06T10:30:03.526Z,34.58
2019-05-06T10:31:03.250Z,33.56
2019-05-06T10:32:12.074Z,34.08
2019-05-06T10:33:03.234Z,34.01
2019-05-06T10:34:03.518Z,35.48
2019-05-06T10:35:03.209Z,36.67
2019-05-06T10:36:03.197Z,39.53
2019-05-06T10:37:12.551Z,40.68
2019-05-06T10:38:04.169Z,41.22
2019-05-06T10:39:03.159Z,43.59
2019-05-06T10:40:03.484Z,43.44
2019-05-06T10:41:07.206Z,46.33
2019-05-06T10:42:03.123Z,46.25
2019-05-06T10:43:03.130Z,47.99
2019-05-06T10:44:03.224Z,47.20
2019-05-06T10:45:03.092Z,47.55
2019-05-06T10:46:04.112Z,49.71
2019-05-06T10:47:03.108Z,49.00
2019-05-06T10:48:03.072Z,49.10
2019-05-06T10:49:03.046Z,49.71
2019-05-06T10:50:03.034Z,52.15
2019-05-06T10:51:03.590Z,50.52
2019-05-06T10:52:03.011Z,49.53
2019-05-06T10:53:03.018Z,49.65
2019-05-06T10:54:03.293Z,49.04
2019-05-06T10:55:03.469Z,49.37
2019-05-06T10:56:02.972Z,50.11
2019-05-06T10:57:02.947Z,50.95
2019-05-06T10:58:02.957Z,50.23
2019-05-06T10:59:02.924Z,51.25
2019-05-06T11:00:02.926Z,52.07
2019-05-06T11:01:03.603Z,51.43
2019-05-06T11:02:05.434Z,52.33
2019-05-06T11:03:02.897Z,50.47
2019-05-06T11:04:02.993Z,50.26
2019-05-06T11:05:02.993Z,48.28
2019-05-06T11:06:02.843Z,48.72
2019-05-06T11:07:04.093Z,49.51
2019-05-06T11:08:02.862Z,47.45
2019-05-06T11:09:03.318Z,47.74
2019-05-06T11:10:02.984Z,46.70
2019-05-06T11:11:14.942Z,47.08
2019-05-06T11:12:03.772Z,46.63
2019-05-06T11:13:03.474Z,45.51
2019-05-06T11:14:03.194Z,45.70
2019-05-06T11:15:03.472Z,45.50
2019-05-06T11:16:03.420Z,45.59
2019-05-06T11:17:05.112Z,46.33
2019-05-06T11:18:04.757Z,47.82
2019-05-06T11:19:05.174Z,46.73
2019-05-06T11:20:06.197Z,46.30
2019-05-06T11:21:03.500Z,46.94
2019-05-06T11:22:03.683Z,47.18
2019-05-06T11:23:02.644Z,48.52
2019-05-06T11:24:05.958Z,49.16
2019-05-06T11:25:03.310Z,50.01
2019-05-06T11:26:03.181Z,50.95
2019-05-06T11:27:03.349Z,50.57
2019-05-06T11:28:03.035Z,52.40
2019-05-06T11:29:05.196Z,53.16
2019-05-06T11:30:02.588Z,55.63
2019-05-06T11:31:02.692Z,56.58
2019-05-06T11:32:02.537Z,55.97
2019-05-06T11:33:04.809Z,57.19
2019-05-06T11:34:02.547Z,55.97
2019-05-06T11:35:03.767Z,56.99
2019-05-06T11:36:02.490Z,56.40
2019-05-06T11:37:02.479Z,55.99
2019-05-06T11:38:02.467Z,57.24
2019-05-06T11:39:02.457Z,57.24
2019-05-06T11:40:02.464Z,57.24
2019-05-06T11:41:02.453Z,57.24
2019-05-06T11:42:23.828Z,56.53
2019-05-06T11:43:03.411Z,57.37
2019-05-06T11:44:02.396Z,55.94
2019-05-06T11:45:03.198Z,57.07
2019-05-06T11:46:02.542Z,57.37
2019-05-06T11:47:03.379Z,57.14
2019-05-06T11:48:02.348Z,56.43
2019-05-06T11:49:02.337Z,55.91
2019-05-06T11:50:04.992Z,54.79
2019-05-06T11:51:02.324Z,57.14
2019-05-06T11:52:02.536Z,56.12
2019-05-06T11:53:02.578Z,55.89
2019-05-06T11:54:02.882Z,56.50
2019-05-06T11:55:03.282Z,56.30
2019-05-06T11:56:02.372Z,55.58
2019-05-06T11:57:02.946Z,55.56
2019-05-06T11:58:02.687Z,54.05
2019-05-06T11:59:02.536Z,54.57
2019-05-06T12:00:03.093Z,55.07
2019-05-06T12:01:02.861Z,55.89
2019-05-06T12:02:02.763Z,54.97
2019-05-06T12:03:02.454Z,55.89
2019-05-06T12:04:02.659Z,55.79
2019-05-06T12:05:02.431Z,55.58
2019-05-06T12:06:03.875Z,57.12
2019-05-06T12:07:10.273Z,57.24
2019-05-06T12:08:07.968Z,57.17
2019-05-06T12:09:06.317Z,58.11
2019-05-06T12:10:02.604Z,58.93
2019-05-06T12:11:02.953Z,58.65
2019-05-06T12:12:03.284Z,59.50
2019-05-06T12:13:02.824Z,60.62
2019-05-06T12:14:02.575Z,61.34
2019-05-06T12:15:03.532Z,61.65
2019-05-06T12:16:02.475Z,61.13
2019-05-06T12:17:02.339Z,61.77
2019-05-06T12:18:03.609Z,61.54
2019-05-06T12:19:02.796Z,61.75
2019-05-06T12:20:03.000Z,60.96
2019-05-06T12:21:09.035Z,61.67
2019-05-06T12:22:02.957Z,62.16
2019-05-06T12:23:04.296Z,61.75
2019-05-06T12:24:02.851Z,60.62
2019-05-06T12:25:04.618Z,61.51
2019-05-06T12:26:02.450Z,59.70
2019-05-06T12:27:03.308Z,59.70
2019-05-06T12:28:03.016Z,60.72
2019-05-06T12:29:02.337Z,59.19
2019-05-06T12:30:05.374Z,59.60
2019-05-06T12:31:01.834Z,59.09
2019-05-06T12:32:03.650Z,59.39
2019-05-06T12:33:03.171Z,58.98
2019-05-06T12:34:02.683Z,60.44
2019-05-06T12:35:03.406Z,60.35
2019-05-06T12:36:02.549Z,61.29
2019-05-06T12:37:02.670Z,61.40
2019-05-06T12:38:06.819Z,59.96
2019-05-06T12:39:06.682Z,60.58
2019-05-06T12:40:03.447Z,60.58
2019-05-06T12:41:03.346Z,60.68
2019-05-06T12:42:01.727Z,60.47
2019-05-06T12:43:03.922Z,60.96
2019-05-06T12:44:03.159Z,60.44
2019-05-06T12:45:03.589Z,60.55
2019-05-06T12:46:02.852Z,60.52
2019-05-06T12:47:03.350Z,59.98
2019-05-06T12:48:03.061Z,59.23
2019-05-06T12:49:03.175Z,58.29
2019-05-06T12:50:02.684Z,59.31
2019-05-06T12:51:03.112Z,57.78
2019-05-06T12:52:01.615Z,58.06
2019-05-06T12:53:01.601Z,57.32